Time;durP1;ratioP1;P1;durP2;ratioP2;P2;SDS_P1;SDS_P2;PMS_P1;PMS_P2;Temp;Humidity;BMP_temperature;BMP_pressure;BME280_temperature;BME280_humidity;BME280_pressure;Samples;Min_cycle;Max_cycle;Signal;HPM_P1;HPM_P2
2022/02/12 00:00:41;;;;;;;24.27;9.03;;;-0.40;99.90;;;;;;6238576;23;20055;-82
2022/02/12 00:03:08;;;;;;;19.03;8.80;;;-0.40;99.90;;;;;;6238363;23;20059;-81
2022/02/12 00:05:34;;;;;;;17.60;9.00;;;-0.40;99.90;;;;;;6237499;23;20026;-81
2022/02/12 00:08:00;;;;;;;13.63;8.13;;;-0.40;99.90;;;;;;6212904;23;20446;-82
2022/02/12 00:10:30;;;;;;;17.40;8.20;;;-0.40;99.90;;;;;;6212719;23;20016;-81
2022/02/12 00:12:56;;;;;;;15.30;8.15;;;-0.40;99.90;;;;;;6238984;23;20020;-83
2022/02/12 00:15:26;;;;;;;15.33;8.57;;;-0.40;99.90;;;;;;6214468;23;20035;-83
2022/02/12 00:17:53;;;;;;;17.07;8.30;;;-0.50;99.90;;;;;;6238384;23;20445;-84
2022/02/12 00:20:20;;;;;;;18.40;8.73;;;-0.50;99.90;;;;;;6237616;23;20783;-83
2022/02/12 00:22:49;;;;;;;16.77;7.77;;;-0.40;99.90;;;;;;6213744;23;20019;-83
2022/02/12 00:25:15;;;;;;;20.43;8.30;;;-0.50;99.90;;;;;;6237866;23;20052;-83
2022/02/12 00:27:40;;;;;;;20.57;10.23;;;-0.60;99.90;;;;;;6238118;23;20019;-82
2022/02/12 00:30:07;;;;;;;19.33;8.73;;;-0.60;99.90;;;;;;6213379;23;20050;-82
2022/02/12 00:32:33;;;;;;;19.47;9.13;;;-0.70;99.90;;;;;;6239568;23;20115;-83
2022/02/12 00:34:59;;;;;;;20.60;9.33;;;-0.70;99.90;;;;;;6239367;23;20520;-82
2022/02/12 00:37:28;;;;;;;16.60;8.37;;;-0.70;99.90;;;;;;6213864;23;20107;-82
2022/02/12 00:39:55;;;;;;;17.53;8.60;;;-0.70;99.90;;;;;;6213828;23;20013;-82
2022/02/12 00:42:22;;;;;;;19.00;9.00;;;-0.70;99.90;;;;;;6238228;23;20020;-82
2022/02/12 00:44:48;;;;;;;23.10;9.23;;;-0.70;99.90;;;;;;6189708;23;20031;-82
2022/02/12 00:47:14;;;;;;;18.37;9.60;;;-0.70;99.90;;;;;;6212384;23;20020;-82
2022/02/12 00:49:40;;;;;;;18.00;8.63;;;-0.60;99.90;;;;;;6213903;23;20019;-81
2022/02/12 00:52:06;;;;;;;21.90;9.17;;;-0.60;99.90;;;;;;6213641;23;20023;-81
2022/02/12 00:54:32;;;;;;;22.73;10.13;;;-0.60;99.90;;;;;;6238688;23;20020;-81
2022/02/12 00:56:59;;;;;;;22.10;9.00;;;-0.60;99.90;;;;;;6188055;23;20409;-81
2022/02/12 00:59:26;;;;;;;20.90;9.90;;;-0.60;99.90;;;;;;6212336;23;20105;-81
2022/02/12 01:01:52;;;;;;;19.00;9.50;;;-0.60;99.90;;;;;;6238233;23;20024;-81
2022/02/12 01:04:18;;;;;;;19.47;8.43;;;-0.60;99.90;;;;;;6237379;23;20016;-81
2022/02/12 01:06:43;;;;;;;23.57;10.23;;;-0.60;99.90;;;;;;6187627;23;20350;-81
2022/02/12 01:09:09;;;;;;;19.77;10.13;;;-0.50;99.90;;;;;;6212153;23;20013;-81
2022/02/12 01:11:35;;;;;;;19.37;9.50;;;-0.50;99.90;;;;;;6211926;23;20023;-80
2022/02/12 01:14:01;;;;;;;19.43;9.87;;;-0.50;99.90;;;;;;6213156;23;20016;-80
2022/02/12 01:16:27;;;;;;;18.90;9.10;;;-0.50;99.90;;;;;;6212424;23;20024;-80
2022/02/12 01:18:55;;;;;;;20.33;10.00;;;-0.50;99.90;;;;;;6212215;23;20020;-81
2022/02/12 01:21:21;;;;;;;17.93;8.47;;;-0.50;99.90;;;;;;6186501;23;20752;-80
2022/02/12 01:23:47;;;;;;;20.00;10.17;;;-0.50;99.90;;;;;;6212220;23;20023;-80
2022/02/12 01:26:13;;;;;;;18.13;9.50;;;-0.50;99.90;;;;;;6187616;23;20023;-80
2022/02/12 01:28:39;;;;;;;19.73;9.77;;;-0.50;99.90;;;;;;6212318;23;20465;-80
2022/02/12 01:31:04;;;;;;;17.83;9.50;;;-0.50;99.90;;;;;;6187824;23;20052;-80
2022/02/12 01:33:30;;;;;;;19.30;9.57;;;-0.50;99.90;;;;;;6211919;23;20020;-81
2022/02/12 01:35:56;;;;;;;21.60;9.23;;;-0.50;99.90;;;;;;6187356;23;20020;-81
2022/02/12 01:38:22;;;;;;;24.03;10.07;;;-0.50;99.90;;;;;;6210126;23;20051;-80
2022/02/12 01:40:48;;;;;;;21.67;9.60;;;-0.40;99.90;;;;;;6212025;23;20020;-81
2022/02/12 01:43:14;;;;;;;21.30;10.37;;;-0.50;99.90;;;;;;6213090;23;20020;-80
2022/02/12 01:45:41;;;;;;;18.87;9.33;;;-0.50;99.90;;;;;;6212756;23;20016;-80
2022/02/12 01:48:07;;;;;;;21.57;11.03;;;-0.40;99.90;;;;;;6212370;23;20480;-80
2022/02/12 01:50:33;;;;;;;20.40;9.67;;;-0.40;99.90;;;;;;6212191;23;20243;-80
2022/02/12 01:52:59;;;;;;;21.37;10.33;;;-0.50;99.90;;;;;;6212810;23;20043;-80
2022/02/12 01:55:25;;;;;;;17.57;9.43;;;-0.70;99.90;;;;;;6187630;23;20020;-80
2022/02/12 01:57:51;;;;;;;17.70;8.90;;;-0.50;99.90;;;;;;6237912;23;20105;-80
2022/02/12 02:00:18;;;;;;;17.80;9.47;;;-0.60;99.90;;;;;;6211118;23;20019;-80
2022/02/12 02:02:44;;;;;;;23.70;9.10;;;-0.60;99.90;;;;;;6237662;23;20102;-80
2022/02/12 02:05:11;;;;;;;20.07;9.07;;;-0.60;99.90;;;;;;6237828;23;20287;-80
2022/02/12 02:07:44;;;;;;;17.73;9.37;;;-0.70;99.90;;;;;;6212565;23;20089;-80
2022/02/12 02:10:12;;;;;;;22.57;10.50;;;-0.70;99.90;;;;;;6238110;23;20048;-80
2022/02/12 02:12:42;;;;;;;20.33;10.17;;;-0.70;99.90;;;;;;6237719;23;20073;-80
2022/02/12 02:15:08;;;;;;;21.38;11.25;;;-0.70;99.90;;;;;;6212350;23;20348;-81
2022/02/12 02:17:34;;;;;;;23.07;10.10;;;-0.70;99.90;;;;;;6212521;23;20027;-80
2022/02/12 02:20:05;;;;;;;22.70;11.13;;;-0.70;99.90;;;;;;6236836;23;20013;-80
2022/02/12 02:22:41;;;;;;;21.13;9.45;;;-0.70;99.90;;;;;;6211819;23;20113;-80
2022/02/12 02:25:08;;;;;;;22.77;10.70;;;-0.70;99.90;;;;;;6236476;23;20020;-80
2022/02/12 02:27:33;;;;;;;19.50;9.60;;;-0.70;99.90;;;;;;6212179;23;20475;-80
2022/02/12 02:29:59;;;;;;;23.97;10.40;;;-0.60;99.90;;;;;;6211993;23;20098;-80
2022/02/12 02:32:25;;;;;;;22.87;10.57;;;-0.60;99.90;;;;;;6212036;23;20346;-80
2022/02/12 02:34:55;;;;;;;17.87;10.07;;;-0.60;99.90;;;;;;6212067;23;20020;-81
2022/02/12 02:37:25;;;;;;;23.17;11.50;;;-0.50;99.90;;;;;;6187051;23;20024;-80
2022/02/12 02:39:51;;;;;;;25.10;10.27;;;-0.40;99.90;;;;;;6236623;23;20095;-80
2022/02/12 02:42:16;;;;;;;25.23;11.33;;;-0.50;99.90;;;;;;6186492;23;20047;-80
2022/02/12 02:44:42;;;;;;;20.80;9.80;;;-0.50;99.90;;;;;;6187477;23;20020;-80
2022/02/12 02:56:00;;;;;;;19.07;9.87;;;-0.60;99.90;;;;;;6234252;23;20586;-80
2022/02/12 02:58:33;;;;;;;18.33;9.93;;;-0.60;99.90;;;;;;6236395;23;20103;-80
2022/02/12 03:01:00;;;;;;;21.10;9.43;;;-0.60;99.90;;;;;;6235623;23;20083;-80
2022/02/12 03:03:26;;;;;;;21.70;10.77;;;-0.60;99.90;;;;;;6236909;23;20405;-80
2022/02/12 03:05:52;;;;;;;17.93;9.20;;;-0.60;99.90;;;;;;6212258;23;20017;-80
2022/02/12 03:08:18;;;;;;;20.23;11.03;;;-0.60;99.90;;;;;;6238235;23;20027;-80
2022/02/12 03:10:44;;;;;;;20.00;9.33;;;-0.40;99.90;;;;;;6237549;23;20016;-80
2022/02/12 03:13:13;;;;;;;17.23;8.30;;;-0.60;99.90;;;;;;6213314;23;20012;-80
2022/02/12 03:15:40;;;;;;;19.07;9.00;;;-0.70;99.90;;;;;;6237312;23;20016;-80
2022/02/12 03:18:06;;;;;;;14.60;8.17;;;-0.60;99.90;;;;;;6238682;23;20016;-80
2022/02/12 03:20:32;;;;;;;23.50;9.97;;;-0.60;99.90;;;;;;6211237;23;20024;-80
2022/02/12 03:22:58;;;;;;;16.63;8.40;;;-0.60;99.90;;;;;;6238232;23;20027;-80
2022/02/12 03:25:24;;;;;;;17.70;8.13;;;-0.60;99.90;;;;;;6185740;23;20020;-80
2022/02/12 03:28:02;;;;;;;21.67;8.50;;;-0.50;99.90;;;;;;6239573;23;20345;-80
2022/02/12 03:30:31;;;;;;;21.40;8.47;;;-0.50;99.90;;;;;;6238374;23;20361;-80
2022/02/12 03:32:57;;;;;;;16.40;8.07;;;-0.60;99.90;;;;;;6215803;23;20093;-81
2022/02/12 03:35:23;;;;;;;16.77;7.73;;;-0.60;99.90;;;;;;6214038;23;20080;-80
2022/02/12 03:37:50;;;;;;;19.30;8.27;;;-0.50;99.90;;;;;;6240797;23;20530;-80
2022/02/12 03:40:17;;;;;;;23.93;8.83;;;-0.40;99.90;;;;;;6194470;22;20019;-80
2022/02/12 03:42:42;;;;;;;19.10;6.87;;;-0.50;99.90;;;;;;6220244;22;20066;-81
2022/02/12 03:45:09;;;;;;;20.10;7.20;;;-0.60;99.90;;;;;;6171015;22;20020;-80
2022/02/12 03:47:36;;;;;;;17.10;7.63;;;-0.50;99.90;;;;;;6195219;22;20023;-80
2022/02/12 03:50:04;;;;;;;17.33;7.13;;;-0.50;99.90;;;;;;6219951;22;20069;-80
2022/02/12 03:52:30;;;;;;;19.33;7.60;;;-0.50;99.90;;;;;;6195032;22;20015;-80
2022/02/12 03:54:56;;;;;;;20.40;7.13;;;-0.50;99.90;;;;;;6219150;22;20448;-80
2022/02/12 03:57:22;;;;;;;22.17;7.87;;;-0.50;99.90;;;;;;6244745;22;20506;-80
2022/02/12 03:59:48;;;;;;;20.70;7.23;;;-0.50;99.90;;;;;;6244288;22;20031;-80
2022/02/12 04:02:14;;;;;;;19.43;7.73;;;-0.40;99.90;;;;;;6219390;22;20441;-81
2022/02/12 04:04:40;;;;;;;19.10;7.17;;;-0.30;99.90;;;;;;6169819;22;20027;-80
2022/02/12 04:07:06;;;;;;;20.90;7.40;;;-0.40;99.90;;;;;;6195121;22;20062;-80
2022/02/12 04:09:32;;;;;;;21.83;8.43;;;-0.40;99.90;;;;;;6193541;22;20055;-80
2022/02/12 04:12:01;;;;;;;18.33;7.73;;;-0.40;99.90;;;;;;6218388;22;20019;-80
2022/02/12 04:14:26;;;;;;;19.17;8.13;;;-0.40;99.90;;;;;;6194257;22;20072;-80
2022/02/12 04:16:52;;;;;;;19.17;7.33;;;-0.40;99.90;;;;;;6244028;22;20102;-80
2022/02/12 04:19:21;;;;;;;17.97;7.87;;;-0.40;99.90;;;;;;6193716;22;20019;-80
2022/02/12 04:21:47;;;;;;;22.50;8.37;;;-0.40;99.90;;;;;;6219396;22;20019;-80
2022/02/12 04:24:12;;;;;;;21.17;8.00;;;-0.40;99.90;;;;;;6218998;22;20019;-80
2022/02/12 04:26:38;;;;;;;20.20;8.93;;;-0.40;99.90;;;;;;6218676;22;20717;-80
2022/02/12 04:29:04;;;;;;;20.20;8.13;;;-0.30;99.90;;;;;;6169679;22;20019;-80
2022/02/12 04:31:30;;;;;;;23.53;9.13;;;-0.30;99.90;;;;;;6168661;22;20515;-80
2022/02/12 04:33:56;;;;;;;20.87;8.87;;;-0.20;99.90;;;;;;6194547;22;20038;-80
2022/02/12 04:36:22;;;;;;;22.07;8.90;;;-0.20;99.90;;;;;;6169231;22;20022;-80
2022/02/12 04:38:48;;;;;;;24.37;9.13;;;-0.20;99.90;;;;;;6193876;22;20016;-80
2022/02/12 04:41:14;;;;;;;24.07;9.17;;;-0.20;99.90;;;;;;6193243;22;20012;-80
2022/02/12 04:43:40;;;;;;;19.60;9.70;;;-0.20;99.90;;;;;;6218669;22;20016;-80
2022/02/12 04:46:06;;;;;;;25.80;10.10;;;-0.20;99.90;;;;;;6219651;22;20023;-80
2022/02/12 04:48:32;;;;;;;20.90;10.33;;;-0.20;99.90;;;;;;6193825;22;20027;-80
2022/02/12 04:51:00;;;;;;;24.90;10.43;;;-0.20;99.90;;;;;;6193400;22;20110;-81
2022/02/12 04:53:26;;;;;;;21.90;10.07;;;-0.20;99.90;;;;;;6193649;22;20011;-80
2022/02/12 04:55:52;;;;;;;22.73;10.07;;;-0.20;99.90;;;;;;6168980;22;20039;-81
2022/02/12 04:58:18;;;;;;;25.57;10.23;;;-0.20;99.90;;;;;;6193811;22;20031;-80
2022/02/12 05:00:43;;;;;;;26.97;10.97;;;-0.20;99.90;;;;;;6192891;22;20023;-81
2022/02/12 05:03:09;;;;;;;25.43;11.70;;;-0.10;99.90;;;;;;6219454;22;20445;-81
2022/02/12 05:05:35;;;;;;;20.60;11.20;;;-0.10;99.90;;;;;;6194474;22;20467;-81
2022/02/12 05:08:00;;;;;;;20.93;11.30;;;-0.10;99.90;;;;;;6219691;22;20019;-81
2022/02/12 05:10:29;;;;;;;22.23;10.70;;;-0.10;99.90;;;;;;6193107;22;20094;-81
2022/02/12 05:12:55;;;;;;;25.73;10.20;;;-0.10;99.90;;;;;;6219682;22;20024;-80
2022/02/12 05:15:20;;;;;;;21.33;10.37;;;0.00;99.90;;;;;;6242923;22;20012;-81
2022/02/12 05:17:46;;;;;;;21.30;11.00;;;0.00;99.90;;;;;;6193389;22;20019;-81
2022/02/12 05:20:12;;;;;;;18.27;10.10;;;0.00;99.90;;;;;;6168035;22;20015;-81
2022/02/12 05:22:38;;;;;;;21.30;11.23;;;0.00;99.90;;;;;;6216736;22;20024;-81
2022/02/12 05:25:05;;;;;;;24.63;11.57;;;0.00;99.90;;;;;;6217160;22;20038;-81
2022/02/12 05:27:34;;;;;;;20.13;10.50;;;0.00;99.90;;;;;;6192451;22;20047;-81
2022/02/12 05:30:00;;;;;;;23.50;11.77;;;0.00;99.90;;;;;;6218453;22;20061;-81
2022/02/12 05:32:29;;;;;;;21.50;10.83;;;0.00;99.90;;;;;;6217606;22;20375;-81
2022/02/12 05:34:56;;;;;;;20.93;11.20;;;-0.10;99.90;;;;;;6218779;22;20099;-81
2022/02/12 05:37:22;;;;;;;23.40;11.40;;;-0.10;99.90;;;;;;6192249;22;20047;-81
2022/02/12 05:39:48;;;;;;;19.00;11.00;;;-0.10;99.90;;;;;;6237299;23;20428;-81
2022/02/12 05:42:13;;;;;;;25.27;12.40;;;-0.10;99.90;;;;;;6211929;23;20024;-81
2022/02/12 05:44:39;;;;;;;24.30;12.10;;;-0.10;99.90;;;;;;6186802;23;20016;-81
2022/02/12 05:47:05;;;;;;;24.20;11.73;;;-0.20;99.90;;;;;;6187733;23;20016;-81
2022/02/12 05:49:31;;;;;;;27.73;13.13;;;-0.20;99.90;;;;;;6187148;23;20039;-81
2022/02/12 05:51:59;;;;;;;25.97;13.33;;;-0.20;99.90;;;;;;6212268;23;20070;-81
2022/02/12 05:54:25;;;;;;;20.10;12.47;;;-0.10;99.90;;;;;;6212259;23;20020;-81
2022/02/12 05:56:51;;;;;;;27.10;13.20;;;0.00;99.90;;;;;;6187147;23;20035;-81
2022/02/12 05:59:19;;;;;;;25.07;13.33;;;-0.10;99.90;;;;;;6187913;23;20068;-81
2022/02/12 06:01:45;;;;;;;23.40;12.87;;;0.00;99.90;;;;;;6185999;23;20530;-81
2022/02/12 06:04:11;;;;;;;26.53;13.23;;;0.00;99.90;;;;;;6188105;23;20367;-82
2022/02/12 06:06:37;;;;;;;22.40;12.30;;;0.10;99.90;;;;;;6210398;23;20020;-81
2022/02/12 06:09:03;;;;;;;22.47;13.10;;;0.20;99.90;;;;;;6238233;23;20107;-82
2022/02/12 06:11:28;;;;;;;23.57;14.37;;;0.20;99.90;;;;;;6211455;23;20016;-82
2022/02/12 06:13:54;;;;;;;27.77;13.73;;;0.20;99.90;;;;;;6187150;23;20119;-82
2022/02/12 06:16:22;;;;;;;19.03;12.60;;;0.20;99.90;;;;;;6187177;23;20020;-82
2022/02/12 06:18:48;;;;;;;21.87;13.50;;;0.10;99.90;;;;;;6237397;23;20403;-82
2022/02/12 06:21:15;;;;;;;26.10;13.43;;;0.20;99.90;;;;;;6237393;23;20360;-82
2022/02/12 06:23:44;;;;;;;23.67;13.30;;;0.30;99.90;;;;;;6236372;23;20020;-82
2022/02/12 06:26:11;;;;;;;20.40;12.60;;;0.20;99.90;;;;;;6237431;23;20027;-81
2022/02/12 06:28:37;;;;;;;26.90;13.87;;;0.30;99.90;;;;;;6186985;23;20016;-82
2022/02/12 06:31:03;;;;;;;23.10;13.80;;;0.30;99.90;;;;;;6211983;23;20475;-81
2022/02/12 06:33:30;;;;;;;23.93;15.53;;;0.30;99.90;;;;;;6187525;23;20095;-82
2022/02/12 06:35:57;;;;;;;25.43;14.50;;;0.30;99.90;;;;;;6188508;23;20078;-82
2022/02/12 06:38:23;;;;;;;27.10;15.57;;;0.30;99.90;;;;;;6212353;23;20047;-82
2022/02/12 06:40:49;;;;;;;24.70;15.47;;;0.30;99.90;;;;;;6186918;23;20385;-80
2022/02/12 06:43:15;;;;;;;29.57;15.67;;;0.40;99.90;;;;;;6187534;23;20027;-81
2022/02/12 06:45:41;;;;;;;24.67;16.60;;;0.40;99.90;;;;;;6162106;23;20012;-82
2022/02/12 06:48:07;;;;;;;24.13;15.73;;;0.40;99.90;;;;;;6211353;23;20016;-81
2022/02/12 06:50:33;;;;;;;26.47;15.20;;;0.40;99.90;;;;;;6186418;23;20059;-81
2022/02/12 06:53:00;;;;;;;22.70;14.87;;;0.40;99.90;;;;;;6185157;23;20075;-82
2022/02/12 06:55:26;;;;;;;25.50;15.00;;;0.40;99.90;;;;;;6186201;23;20449;-82
2022/02/12 06:58:11;;;;;;;23.93;15.00;;;0.40;99.90;;;;;;6212307;23;20055;-81
2022/02/12 07:00:37;;;;;;;22.00;14.03;;;0.30;99.90;;;;;;6163274;23;20047;-82
2022/02/12 07:03:03;;;;;;;26.77;14.83;;;0.40;99.90;;;;;;6239101;23;20016;-82
2022/02/12 07:05:43;;;;;;;23.23;15.40;;;0.40;99.90;;;;;;6189847;23;20078;-82
2022/02/12 07:08:46;;;;;;;23.33;14.88;;;0.30;99.90;;;;;;6191698;23;20236;-82
2022/02/12 07:11:44;;;;;;;23.67;14.23;;;0.50;99.90;;;;;;6210001;23;20491;-81
2022/02/12 07:14:55;;;;;;;24.67;15.13;;;0.30;99.90;;;;;;6192048;23;20020;-81
2022/02/12 07:20:42;;;;;;;;;;;0.30;99.90;;;;;;6173364;23;20024;-80
2022/02/12 07:23:18;;;;;;;27.47;16.10;;;0.40;99.90;;;;;;6237575;23;19920;-81
2022/02/12 07:26:36;;;;;;;24.47;16.27;;;0.40;99.90;;;;;;6208362;23;20098;-82
2022/02/12 07:32:11;;;;;;;22.53;15.53;;;0.40;99.90;;;;;;6103377;23;20025;-81
2022/02/12 07:35:02;;;;;;;;;;;;;;;;;;;;;
2022/02/12 07:37:51;;;;;;;24.77;15.70;;;0.40;99.90;;;;;;6216991;23;20019;-82
2022/02/12 07:44:05;;;;;;;26.30;16.02;;;0.40;99.90;;;;;;6236911;22;20321;-82
2022/02/12 07:46:44;;;;;;;27.10;17.13;;;0.40;99.90;;;;;;6238655;22;20024;-82
2022/02/12 07:49:10;;;;;;;24.50;15.50;;;0.40;99.90;;;;;;6187496;23;20020;-82
2022/02/12 07:51:36;;;;;;;23.63;17.37;;;0.40;99.90;;;;;;6185284;23;20024;-82
2022/02/12 07:54:03;;;;;;;26.57;17.10;;;0.50;99.90;;;;;;6211436;23;20016;-82
2022/02/12 07:56:30;;;;;;;26.43;16.13;;;0.50;99.90;;;;;;6186464;23;20095;-82
2022/02/12 07:58:56;;;;;;;25.20;16.27;;;0.50;99.90;;;;;;6211631;23;20031;-82
2022/02/12 08:01:22;;;;;;;26.07;16.77;;;0.70;99.90;;;;;;6236150;23;20019;-82
2022/02/12 08:03:47;;;;;;;28.10;17.00;;;0.70;99.90;;;;;;6186892;23;20087;-82
2022/02/12 08:09:00;;;;;;;25.53;15.90;;;0.80;99.90;;;;;;6235806;23;20031;-82
2022/02/12 08:11:35;;;;;;;25.37;17.07;;;0.80;99.90;;;;;;6208758;23;20099;-82
2022/02/12 08:14:01;;;;;;;33.20;18.37;;;0.90;99.90;;;;;;6186743;23;20029;-82
2022/02/12 08:16:26;;;;;;;25.40;16.10;;;0.90;99.90;;;;;;6186212;23;20020;-82
2022/02/12 08:18:52;;;;;;;28.23;17.00;;;0.90;99.90;;;;;;6187858;23;20127;-82
2022/02/12 08:21:18;;;;;;;25.90;17.33;;;1.00;99.90;;;;;;6211218;23;20043;-82
2022/02/12 08:23:44;;;;;;;29.27;17.40;;;1.00;99.90;;;;;;6210358;23;20023;-82
2022/02/12 08:26:10;;;;;;;24.53;15.80;;;1.10;99.90;;;;;;6210976;23;20016;-82
2022/02/12 08:28:37;;;;;;;29.17;17.23;;;1.10;99.90;;;;;;6236156;23;20020;-82
2022/02/12 08:31:03;;;;;;;25.03;17.77;;;1.10;99.90;;;;;;6186384;23;20326;-82
2022/02/12 08:33:29;;;;;;;23.80;16.57;;;1.20;99.90;;;;;;6185098;23;20338;-83
2022/02/12 08:35:55;;;;;;;25.07;16.03;;;1.30;99.90;;;;;;6212574;23;20020;-84
2022/02/12 08:38:22;;;;;;;22.53;16.60;;;1.30;99.90;;;;;;6209482;23;20062;-82
2022/02/12 08:40:47;;;;;;;24.53;15.77;;;1.40;99.90;;;;;;6182606;23;20070;-82
2022/02/12 08:43:14;;;;;;;22.30;15.60;;;1.40;99.90;;;;;;6234790;23;20495;-83
2022/02/12 08:45:40;;;;;;;26.60;16.73;;;1.50;99.90;;;;;;6235189;23;20016;-83
2022/02/12 08:48:09;;;;;;;20.17;15.60;;;1.60;99.90;;;;;;6211097;23;20019;-83
2022/02/12 08:50:35;;;;;;;24.70;15.70;;;1.60;99.90;;;;;;6183361;23;20017;-85
2022/02/12 08:53:01;;;;;;;23.57;15.50;;;1.80;99.90;;;;;;6235885;23;20016;-83
2022/02/12 08:55:28;;;;;;;26.27;15.07;;;1.80;99.90;;;;;;6213390;23;20445;-85
2022/02/12 08:57:55;;;;;;;23.90;15.03;;;1.90;99.90;;;;;;6213231;23;20016;-85
2022/02/12 09:00:21;;;;;;;21.53;15.07;;;1.90;99.90;;;;;;6188835;23;20074;-85
2022/02/12 09:02:47;;;;;;;19.33;13.40;;;1.90;99.90;;;;;;6187203;23;20798;-85
2022/02/12 09:05:13;;;;;;;26.40;14.00;;;2.00;99.90;;;;;;6238842;23;20016;-84
2022/02/12 09:07:39;;;;;;;25.97;15.13;;;2.10;99.90;;;;;;6213345;23;20042;-85
2022/02/12 09:10:06;;;;;;;23.50;14.73;;;2.10;99.90;;;;;;6187795;23;20031;-86
2022/02/12 09:12:32;;;;;;;23.27;13.60;;;2.10;99.90;;;;;;6187143;23;20071;-85
2022/02/12 09:15:01;;;;;;;23.53;13.97;;;2.20;99.90;;;;;;6213343;23;20058;-84
2022/02/12 09:17:27;;;;;;;20.63;13.20;;;2.30;99.90;;;;;;6189114;23;20020;-84
2022/02/12 09:19:58;;;;;;;19.53;12.87;;;2.30;99.90;;;;;;6213624;23;20016;-83
2022/02/12 09:22:25;;;;;;;19.37;11.33;;;2.30;99.90;;;;;;6213810;23;20203;-85
2022/02/12 09:24:51;;;;;;;18.43;12.47;;;2.50;99.90;;;;;;6187526;23;20074;-84
2022/02/12 09:27:17;;;;;;;17.93;11.90;;;2.40;99.90;;;;;;6212883;23;20392;-83
2022/02/12 09:29:43;;;;;;;18.70;11.33;;;2.40;99.90;;;;;;6210684;23;20012;-83
2022/02/12 09:32:09;;;;;;;20.90;12.90;;;2.40;99.90;;;;;;6210639;23;20027;-83
2022/02/12 09:34:35;;;;;;;21.23;12.53;;;2.50;99.90;;;;;;6188000;23;20023;-84
2022/02/12 09:37:01;;;;;;;22.13;12.53;;;2.60;99.90;;;;;;6187948;23;20118;-85
2022/02/12 09:39:30;;;;;;;19.70;11.37;;;2.60;99.90;;;;;;6188619;23;20813;-83
2022/02/12 09:41:59;;;;;;;21.43;12.03;;;2.70;99.90;;;;;;6188344;23;20039;-84
2022/02/12 09:44:25;;;;;;;20.13;11.20;;;2.80;99.90;;;;;;6212906;23;20518;-84
2022/02/12 09:47:25;;;;;;;18.43;9.37;;;2.80;99.90;;;;;;6188441;23;20028;-82
2022/02/12 09:49:55;;;;;;;20.20;9.77;;;2.90;99.90;;;;;;6239153;23;20024;-84
2022/02/12 09:52:23;;;;;;;21.77;9.90;;;3.00;99.90;;;;;;6212194;23;20027;-83
2022/02/12 09:54:49;;;;;;;16.10;9.50;;;3.10;99.90;;;;;;6213384;23;20016;-83
2022/02/12 09:57:15;;;;;;;17.27;9.50;;;3.20;99.90;;;;;;6210586;23;20039;-84
2022/02/12 09:59:41;;;;;;;18.47;8.80;;;3.30;99.90;;;;;;6212996;23;20024;-83
2022/02/12 10:02:09;;;;;;;15.43;8.57;;;3.40;99.90;;;;;;6211919;23;20026;-82
2022/02/12 10:04:34;;;;;;;15.43;7.77;;;3.40;99.90;;;;;;6212501;23;20016;-81
2022/02/12 10:07:00;;;;;;;17.27;7.70;;;3.50;99.90;;;;;;6211251;23;20102;-85
2022/02/12 10:09:26;;;;;;;14.83;7.73;;;3.60;99.90;;;;;;6212065;23;20082;-84
2022/02/12 10:11:54;;;;;;;14.37;7.10;;;3.70;99.90;;;;;;6212757;23;20051;-83
2022/02/12 10:14:44;;;;;;;16.37;7.93;;;3.70;99.90;;;;;;6236402;23;20461;-82
2022/02/12 10:17:11;;;;;;;15.27;6.53;;;3.80;99.90;;;;;;6209481;23;20350;-83
2022/02/12 10:19:38;;;;;;;16.77;7.07;;;3.80;99.90;;;;;;6236976;23;20574;-82
2022/02/12 10:22:17;;;;;;;14.53;6.60;;;4.00;99.90;;;;;;6210903;23;20094;-83
2022/02/12 10:24:44;;;;;;;13.80;6.70;;;4.00;99.90;;;;;;6211119;23;20016;-83
2022/02/12 10:27:09;;;;;;;18.67;7.33;;;4.20;99.90;;;;;;6211892;23;20039;-83
2022/02/12 10:29:35;;;;;;;19.07;8.07;;;4.20;99.90;;;;;;6210723;23;20031;-82
2022/02/12 10:32:01;;;;;;;17.07;6.63;;;4.40;99.90;;;;;;6210934;23;20020;-83
2022/02/12 10:34:38;;;;;;;15.43;6.73;;;4.30;99.90;;;;;;6211664;23;20016;-83
2022/02/12 10:37:05;;;;;;;12.93;5.90;;;4.40;99.90;;;;;;6238127;23;20020;-82
2022/02/12 10:39:37;;;;;;;16.43;6.23;;;4.50;99.90;;;;;;6213529;23;20012;-83
2022/02/12 10:42:07;;;;;;;17.50;6.90;;;4.50;99.90;;;;;;6218128;22;20058;-81
2022/02/12 10:44:33;;;;;;;16.40;6.57;;;4.50;99.90;;;;;;6217762;22;20096;-83
2022/02/12 10:46:59;;;;;;;14.77;6.43;;;4.60;99.90;;;;;;6193012;22;20026;-82
2022/02/12 10:49:26;;;;;;;14.20;6.33;;;4.60;99.90;;;;;;6168515;22;20051;-82
2022/02/12 10:51:52;;;;;;;17.70;7.20;;;4.60;99.90;;;;;;6239361;22;20024;-83
2022/02/12 10:54:19;;;;;;;15.40;7.70;;;4.70;99.90;;;;;;6192307;22;20085;-83
2022/02/12 10:57:00;;;;;;;12.43;6.10;;;4.80;99.90;;;;;;6218763;22;20024;-83
2022/02/12 10:59:25;;;;;;;;;;;4.80;99.90;;;;;;6194440;22;20385;-82
2022/02/12 11:01:52;;;;;;;15.87;6.27;;;4.80;99.90;;;;;;6241877;22;20123;-81
2022/02/12 11:04:19;;;;;;;14.80;5.93;;;4.90;99.90;;;;;;6215663;22;20022;-82
2022/02/12 11:06:49;;;;;;;14.20;6.23;;;5.00;99.90;;;;;;6238146;22;20078;-83
2022/02/12 11:09:16;;;;;;;16.00;6.00;;;5.10;99.90;;;;;;6239411;22;20083;-82
2022/02/12 11:11:42;;;;;;;13.30;5.73;;;5.10;99.90;;;;;;6191239;22;20448;-82
2022/02/12 11:14:12;;;;;;;13.20;5.70;;;5.10;99.90;;;;;;6214482;22;20085;-81
2022/02/12 11:16:38;;;;;;;11.50;5.63;;;5.20;99.90;;;;;;6211714;22;20081;-80
2022/02/12 11:19:04;;;;;;;15.00;5.53;;;5.10;99.90;;;;;;6187492;22;20019;-83
2022/02/12 11:21:33;;;;;;;17.07;5.60;;;5.30;99.90;;;;;;6188123;22;20047;-83
2022/02/12 11:24:04;;;;;;;14.10;5.40;;;5.30;99.90;;;;;;6214415;22;20011;-81
2022/02/12 11:26:42;;;;;;;11.83;5.57;;;5.30;99.90;;;;;;6212424;22;20011;-82
2022/02/12 11:29:34;;;;;;;12.27;5.47;;;5.40;99.90;;;;;;6187236;22;20016;-82
2022/02/12 11:32:13;;;;;;;14.13;5.87;;;5.50;99.90;;;;;;6240214;22;20020;-82
2022/02/12 11:34:43;;;;;;;13.15;5.45;;;5.50;99.90;;;;;;6237963;22;20073;-81
2022/02/12 11:37:17;;;;;;;14.00;5.80;;;5.60;99.90;;;;;;6215039;22;20019;-82
2022/02/12 11:40:09;;;;;;;16.77;5.50;;;5.60;99.90;;;;;;6237120;22;20326;-83
2022/02/12 11:42:46;;;;;;;13.43;5.43;;;5.60;99.90;;;;;;6211935;22;20020;-82
2022/02/12 11:45:42;;;;;;;15.13;5.60;;;5.60;99.90;;;;;;6212473;22;20019;-82
2022/02/12 11:48:35;;;;;;;13.43;5.43;;;5.60;99.90;;;;;;6228952;22;20073;-82
2022/02/12 11:51:01;;;;;;;14.10;5.03;;;5.60;99.90;;;;;;6218123;22;20024;-82
2022/02/12 11:53:36;;;;;;;14.73;6.13;;;5.70;99.90;;;;;;6239740;22;20016;-81
2022/02/12 11:56:10;;;;;;;14.33;6.20;;;5.80;99.90;;;;;;6192121;22;20062;-81
2022/02/12 11:58:45;;;;;;;12.50;5.43;;;5.80;99.90;;;;;;6216977;22;20664;-80
2022/02/12 12:01:24;;;;;;;12.37;5.00;;;5.90;99.90;;;;;;6241431;22;20019;-82
2022/02/12 12:04:15;;;;;;;12.77;5.43;;;5.90;99.90;;;;;;6243613;22;20073;-83
2022/02/12 12:06:59;;;;;;;13.00;5.63;;;5.90;99.90;;;;;;6216470;22;20022;-82
2022/02/12 12:09:26;;;;;;;14.17;5.13;;;5.90;99.90;;;;;;6216928;22;20074;-81
2022/02/12 12:12:24;;;;;;;10.33;4.97;;;5.90;99.90;;;;;;6242607;22;20340;-82
2022/02/12 12:14:52;;;;;;;13.03;5.40;;;6.00;99.90;;;;;;6152365;22;20089;-82
2022/02/12 12:17:24;;;;;;;15.90;5.83;;;6.00;99.90;;;;;;6242083;22;20350;-82
2022/02/12 12:19:53;;;;;;;14.00;5.70;;;6.00;99.90;;;;;;6242592;22;20019;-82
2022/02/12 12:22:19;;;;;;;16.23;5.40;;;6.10;99.90;;;;;;6217527;22;20534;-81
2022/02/12 12:24:45;;;;;;;14.03;5.60;;;6.20;99.90;;;;;;6216306;22;20173;-81
2022/02/12 12:27:18;;;;;;;13.80;5.30;;;6.20;99.90;;;;;;6217851;22;20066;-84
2022/02/12 12:32:31;;;;;;;11.80;5.27;;;6.30;99.90;;;;;;6241528;22;20058;-82
2022/02/12 12:35:06;;;;;;;13.02;4.88;;;6.40;99.90;;;;;;6192760;22;20404;-82
2022/02/12 12:37:51;;;;;;;14.10;5.28;;;6.40;99.90;;;;;;6243009;22;20102;-80
2022/02/12 12:40:28;;;;;;;13.48;6.22;;;6.50;99.90;;;;;;6218663;22;20016;-81
2022/02/12 12:43:02;;;;;;;13.52;5.20;;;6.50;99.90;;;;;;6218593;22;20443;-81
2022/02/12 12:45:41;;;;;;;10.48;4.80;;;6.50;99.90;;;;;;6217711;22;20031;-82
2022/02/12 12:48:07;;;;;;;12.07;4.53;;;6.50;99.90;;;;;;6217609;22;20016;-83
2022/02/12 12:50:39;;;;;;;14.50;5.28;;;6.50;99.90;;;;;;6217398;22;20027;-83
2022/02/12 12:53:06;;;;;;;11.10;4.97;;;6.50;99.90;;;;;;6217151;22;20108;-82
2022/02/12 12:55:32;;;;;;;12.05;5.13;;;6.50;99.60;;;;;;6242154;22;20038;-80
2022/02/12 12:57:58;;;;;;;12.63;4.67;;;6.50;99.90;;;;;;6193667;22;20444;-82
2022/02/12 13:00:25;;;;;;;9.80;4.68;;;6.50;99.60;;;;;;6193000;22;20015;-82
2022/02/12 13:02:56;;;;;;;13.82;4.90;;;6.50;99.00;;;;;;6217533;22;20015;-82
2022/02/12 13:05:27;;;;;;;9.80;4.55;;;6.50;99.10;;;;;;6217837;22;20016;-82
2022/02/12 13:07:55;;;;;;;12.48;4.80;;;6.50;98.30;;;;;;6218100;22;20318;-75
2022/02/12 13:10:26;;;;;;;11.63;5.07;;;6.50;99.00;;;;;;6217102;22;20019;-82
2022/02/12 13:12:53;;;;;;;9.77;4.55;;;6.50;99.90;;;;;;6241896;22;20019;-83